Monchegorsk, Russia
Current Conditions -  °F | °C
As of 6:30 PM on Wednesday 22 Oct 2014 (Local Time) from ULMM Reporting Station
Light Fog Light Fog  
Wind Chill:   Ceiling: Unl
Heat Index:   Visibility: 6mi
Dew Point:   Wind: 2mph
Humidity: 85%   Direction: NA
Pressure: 30.48"   Gusts: NA
Location:  67.92°N, 32.82°E
Report Text: ULMM 221530Z VRB01MPS 9999 BCFG FEW003 M16/M18 Q1032 NOSIG RMKQBB100 OBST OBSC QFE767 31390150
Loading
Personal Weather Stations






























Interactive Weather Map
Tropical Storm Tracking
New forecast layout! Learn more

10-Day Weather Forecast

Advertisements
Track Severe Weather on mobile